Share

Montezuma, NM (87731)

Las Vegas Municipal (KLVS) Elev 6877 ft | 35.65 °N, 105.14 °W | Change Station

Current weather conditions updated 35 minutes ago

Clear
Clear
55 °F
Feels Like 55 °F
N
21
Wind Variable Wind from SSW
Sunrise 6:24 AM
Sunset 7:36 PM
Moon Waning Gibbous

Today is forecast to be Much Warmer than yesterday. Chance of late night showers tonight.

Pressure 30.04 in
Visibility 10.0 miles
Clouds Clear
Dew Point 29 °F
Humidity 37%
Rainfall 0.00 in
Snow Depth 1 in
UV 6 out of 16
Pollen 9.60 out of 12
Air Quality Not available.
Flu Activity Local Activity
METAR KLVS 181553Z AUTO 20018KT 10SM CLR 13/M02 A3019 RMK AO2 SLP171 T01281017

More Conditions Fewer Conditions

Pressure 30.04 in
Visibility 10.0 miles
Clouds Clear
Dew Point 29 °F
Humidity 37%
Rainfall 0.00 in
Snow Depth 1 in
UV 6 out of 16
Pollen 9.60 out of 12
Air Quality Not available.
Flu Activity Local Activity
METAR KLVS 181553Z AUTO 20018KT 10SM CLR 13/M02 A3019 RMK AO2 SLP171 T01281017

More Conditions Fewer Conditions

10-Day Forecast

Almanac

Astronomy

Apr. 18, 2014 Rise Set
Actual Time 6:24 AM MDT 7:36 PM MDT
Civil Twilight 5:58 AM MDT 8:03 PM MDT
Nautical Twilight 5:26 AM MDT 8:35 PM MDT
Astronomical Twilight 4:53 AM MDT 9:07 PM MDT
Moon 11:20 PM MDT 8:53 AM MDT
Length of Visible Light 14h 05m
Length of Day
13h 12m
Tomorrow will be 2m 6s longer.
Waning Gibbous, 87% of the Moon is Illuminated
Today
Waning Gibbous
Apr 22
Last Quarter
Apr 29
New
May 6
First Quarter
May 14
Full

Today's Extremes

State Highs State Lows

Community

  • What's for Lunch?
    What's for Lunch?
  • SUNRISE THROUGH THE TREES.
    SUNRISE THROUGH THE TREES.
  • Dog Wood Blossoms
    Dog Wood Blossoms
  • Morning Light
    Morning Light
  • New Day
    New Day

WunderPhotos

Upload Photos

1,702,397 photos uploaded!

Nearby

Snow Depth

Station Depth Elevation
Wesner Springs 1 in 11120 ft
Elk Cabin 0 in 8210 ft
Santa Fe 32 in 11445 ft
Gallegos Peak 0 in 9800 ft
Tolby 0 in 10180 ft

Coastal Water Temperatures

Place Temperature
No Stations Reporting

Earthquake Activity

City Distance Mag. Time & Date
No recent earthquake activity has been reported nearby.
Minimum magnitude displayed is 2.5.

Nearby Weather Stations

Station Location Temp. Windchill Dew Point Humidity Wind Precip. Elev Updated Type
San Geronimo, Las Vegas, NM 65.8 °F - 26 °F 22% SW  at  4.5 mph 0.00 in / hr 6834 ft 10:28 AM MDT Rapid Fire
Ilfeld, NM 62.4 °F - 27 °F 26% SW  at  4.9 mph 0.00 in / hr 6447 ft 10:28 AM MDT Rapid Fire
Pendaries RV Resort, Rociada, NM 60.2 °F - 33 °F 36% SE  at  1.0 mph 0.00 in / hr 7910 ft 10:28 AM MDT Rapid Fire
RAWS BARTLEY NM, Rociada, NM 36 °F 36 °F 27 °F 69% NNW  at  3 mph 0.00 in / hr 8338 ft 7:04 AM MDT MADIS
MesoWest WESNER SPRINGS , Tererro, NM 36 °F 36 °F 20 °F 52% WSW  at  1 mph 0.00 in / hr 11120 ft 7:00 AM MDT MADIS

Show More Stations Show Fewer Stations

What do you think?

We're not finished. Please let us know what you like, what you don't like, and what you are still missing.